createdAt,value
2018-07-23T00:00:41.056Z,8.83
2018-07-23T00:03:08.783Z,9.10
2018-07-23T00:05:36.473Z,9.80
2018-07-23T00:08:04.175Z,10.23
2018-07-23T00:10:31.865Z,10.53
2018-07-23T00:12:59.568Z,9.80
2018-07-23T00:15:27.298Z,9.63
2018-07-23T00:17:55.026Z,9.60
2018-07-23T00:20:22.758Z,10.47
2018-07-23T00:22:50.530Z,9.53
2018-07-23T00:25:18.222Z,9.87
2018-07-23T00:27:45.921Z,11.03
2018-07-23T00:30:13.603Z,10.30
2018-07-23T00:32:41.284Z,10.53
2018-07-23T00:35:09.036Z,10.30
2018-07-23T00:37:36.699Z,10.60
2018-07-23T00:40:04.408Z,11.13
2018-07-23T00:42:32.179Z,10.00
2018-07-23T00:44:59.921Z,10.40
2018-07-23T00:47:27.606Z,9.63
2018-07-23T00:49:55.301Z,11.03
2018-07-23T00:52:23.141Z,9.97
2018-07-23T00:54:50.831Z,9.90
2018-07-23T00:57:18.542Z,9.47
2018-07-23T00:59:46.259Z,9.60
2018-07-23T01:02:13.960Z,9.57
2018-07-23T01:04:41.682Z,10.00
2018-07-23T01:07:09.437Z,10.03
2018-07-23T01:09:37.183Z,10.10
2018-07-23T01:12:04.898Z,9.40
2018-07-23T01:14:32.645Z,10.30
2018-07-23T01:17:00.354Z,9.77
2018-07-23T01:19:28.197Z,9.80
2018-07-23T01:21:55.899Z,10.93
2018-07-23T01:24:23.620Z,10.03
2018-07-23T01:26:51.312Z,9.77
2018-07-23T01:29:19.054Z,10.43
2018-07-23T01:31:46.782Z,10.70
2018-07-23T01:34:14.481Z,11.13
2018-07-23T01:36:42.172Z,10.17
2018-07-23T01:39:10.210Z,10.03
2018-07-23T01:41:38.158Z,10.47
2018-07-23T01:44:05.881Z,10.33
2018-07-23T01:46:33.714Z,10.90
2018-07-23T01:49:01.407Z,10.40
2018-07-23T01:51:29.142Z,10.97
2018-07-23T01:53:56.846Z,10.17
2018-07-23T01:56:24.570Z,11.17
2018-07-23T01:58:52.238Z,10.60
2018-07-23T02:01:19.945Z,11.33
2018-07-23T02:03:47.642Z,10.80
2018-07-23T02:06:15.370Z,10.30
2018-07-23T02:08:43.098Z,10.50
2018-07-23T02:11:10.825Z,10.63
2018-07-23T02:13:38.558Z,11.43
2018-07-23T02:16:06.250Z,10.90
2018-07-23T02:18:33.957Z,10.97
2018-07-23T02:21:01.782Z,11.23
2018-07-23T02:23:29.543Z,11.17
2018-07-23T02:25:57.229Z,11.50
2018-07-23T02:28:24.945Z,11.23
2018-07-23T02:30:52.618Z,11.40
2018-07-23T02:33:20.351Z,11.03
2018-07-23T02:35:48.051Z,11.07
2018-07-23T02:38:15.759Z,11.63
2018-07-23T02:40:43.443Z,11.77
2018-07-23T02:43:11.126Z,11.07
2018-07-23T02:45:38.827Z,11.13
2018-07-23T02:48:06.560Z,11.07
2018-07-23T02:50:34.266Z,12.20
2018-07-23T02:53:01.973Z,9.90
2018-07-23T02:55:29.657Z,10.57
2018-07-23T02:57:57.356Z,11.20
2018-07-23T03:00:25.058Z,11.33
2018-07-23T03:02:52.739Z,11.03
2018-07-23T03:05:20.463Z,10.40
2018-07-23T03:07:48.183Z,11.00
2018-07-23T03:10:16.005Z,10.87
2018-07-23T03:12:43.701Z,10.37
2018-07-23T03:15:11.433Z,11.60
2018-07-23T03:17:39.131Z,11.07
2018-07-23T03:20:06.853Z,10.90
2018-07-23T03:22:34.557Z,11.07
2018-07-23T03:25:02.324Z,11.43
2018-07-23T03:27:30.023Z,10.50
2018-07-23T03:29:57.726Z,10.90
2018-07-23T03:32:25.426Z,12.50
2018-07-23T03:34:53.137Z,12.13
2018-07-23T03:37:20.790Z,10.70
2018-07-23T03:39:48.486Z,12.07
2018-07-23T03:42:16.245Z,12.07
2018-07-23T03:44:43.967Z,12.20
2018-07-23T03:47:11.721Z,12.23
2018-07-23T03:49:39.396Z,11.77
2018-07-23T03:52:07.114Z,12.57
2018-07-23T03:54:34.881Z,12.90
2018-07-23T03:57:02.585Z,11.83
2018-07-23T03:59:30.311Z,11.40
2018-07-23T04:01:57.987Z,11.90
2018-07-23T04:04:25.710Z,11.93
2018-07-23T04:06:53.461Z,12.20
2018-07-23T04:09:21.213Z,12.00
2018-07-23T04:11:48.976Z,11.87
2018-07-23T04:14:16.706Z,12.03
2018-07-23T04:16:44.406Z,11.83
2018-07-23T04:19:12.143Z,11.93
2018-07-23T04:21:39.839Z,12.60
2018-07-23T04:24:07.882Z,12.03
2018-07-23T04:26:35.593Z,12.80
2018-07-23T04:29:03.385Z,12.03
2018-07-23T04:31:31.058Z,12.67
2018-07-23T04:33:58.761Z,11.77
2018-07-23T04:36:26.451Z,11.93
2018-07-23T04:38:54.129Z,13.17
2018-07-23T04:41:21.866Z,12.30
2018-07-23T04:43:49.578Z,12.40
2018-07-23T04:46:17.298Z,12.37
2018-07-23T04:48:45.018Z,12.73
2018-07-23T04:51:12.700Z,15.00
2018-07-23T04:53:40.378Z,12.93
2018-07-23T04:56:08.122Z,14.80
2018-07-23T04:58:35.849Z,13.13
2018-07-23T05:01:03.599Z,14.27
2018-07-23T05:03:31.325Z,13.93
2018-07-23T05:05:59.049Z,12.40
2018-07-23T05:08:26.755Z,14.20
2018-07-23T05:10:54.493Z,13.67
2018-07-23T05:13:22.199Z,14.57
2018-07-23T05:15:50.022Z,14.70
2018-07-23T05:18:17.767Z,14.43
2018-07-23T05:20:45.502Z,14.57
2018-07-23T05:23:13.219Z,14.30
2018-07-23T05:25:40.993Z,17.73
2018-07-23T05:28:08.706Z,14.40
2018-07-23T05:30:36.411Z,13.07
2018-07-23T05:33:04.102Z,14.50
2018-07-23T05:35:31.788Z,15.53
2018-07-23T05:37:59.473Z,15.00
2018-07-23T05:40:27.144Z,16.33
2018-07-23T05:42:54.861Z,15.10
2018-07-23T05:45:22.636Z,16.40
2018-07-23T05:47:50.338Z,15.23
2018-07-23T05:50:18.146Z,14.63
2018-07-23T05:52:45.905Z,14.67
2018-07-23T05:55:13.651Z,13.37
2018-07-23T05:57:41.343Z,14.50
2018-07-23T06:00:09.240Z,13.90
2018-07-23T06:02:37.171Z,14.30
2018-07-23T06:05:05.063Z,12.60
2018-07-23T06:07:32.839Z,14.27
2018-07-23T06:10:00.551Z,12.33
2018-07-23T06:12:28.428Z,13.20
2018-07-23T06:14:56.131Z,11.53
2018-07-23T06:17:23.920Z,12.63
2018-07-23T06:19:51.610Z,13.27
2018-07-23T06:22:19.382Z,13.00
2018-07-23T06:24:47.112Z,12.77
2018-07-23T06:27:14.865Z,11.93
2018-07-23T06:29:42.590Z,10.37
2018-07-23T06:32:10.319Z,10.97
2018-07-23T06:34:38.080Z,11.83
2018-07-23T06:37:05.895Z,11.60
2018-07-23T06:39:33.606Z,12.30
2018-07-23T06:42:01.352Z,13.10
2018-07-23T06:44:29.078Z,11.57
2018-07-23T06:46:56.798Z,13.00
2018-07-23T06:49:24.467Z,13.93
2018-07-23T06:51:52.190Z,14.33
2018-07-23T06:54:19.961Z,13.07
2018-07-23T06:56:47.699Z,16.50
2018-07-23T06:59:15.478Z,15.03
2018-07-23T07:01:43.184Z,14.13
2018-07-23T07:04:10.886Z,14.97
2018-07-23T07:06:38.705Z,13.60
2018-07-23T07:09:07.883Z,15.03
2018-07-23T07:11:36.393Z,14.33
2018-07-23T07:14:04.359Z,11.13
2018-07-23T07:16:32.067Z,10.43
2018-07-23T07:18:59.813Z,9.60
2018-07-23T07:21:27.511Z,9.60
2018-07-23T07:23:55.206Z,9.43
2018-07-23T07:26:22.890Z,8.70
2018-07-23T07:28:50.571Z,9.47
2018-07-23T07:31:18.326Z,10.27
2018-07-23T07:33:46.022Z,10.87
2018-07-23T07:36:13.726Z,9.57
2018-07-23T07:38:41.441Z,10.50
2018-07-23T07:41:10.241Z,9.67
2018-07-23T07:43:37.945Z,9.83
2018-07-23T07:46:05.712Z,10.23
2018-07-23T07:48:33.437Z,10.27
2018-07-23T07:51:01.245Z,8.90
2018-07-23T07:53:28.941Z,8.70
2018-07-23T07:55:56.683Z,7.80
2018-07-23T07:58:25.767Z,8.20
2018-07-23T08:00:55.346Z,8.67
2018-07-23T08:03:24.172Z,6.70
2018-07-23T08:05:52.574Z,8.03
2018-07-23T08:08:21.142Z,8.20
2018-07-23T08:10:48.926Z,8.13
2018-07-23T08:13:16.817Z,8.07
2018-07-23T08:15:44.605Z,9.53
2018-07-23T08:18:12.412Z,11.57
2018-07-23T08:20:40.184Z,8.90
2018-07-23T08:23:07.931Z,8.20
2018-07-23T08:25:35.680Z,8.35
2018-07-23T08:28:03.537Z,8.30
2018-07-23T08:30:31.356Z,8.45
2018-07-23T08:32:59.223Z,9.68
2018-07-23T08:35:26.990Z,8.18
2018-07-23T08:37:54.753Z,9.50
2018-07-23T08:40:22.507Z,16.30
2018-07-23T08:42:50.212Z,10.75
2018-07-23T08:45:18.029Z,9.93
2018-07-23T08:47:45.736Z,9.93
2018-07-23T08:50:13.439Z,10.82
2018-07-23T08:52:41.133Z,10.50
2018-07-23T08:55:08.852Z,12.75
2018-07-23T08:57:36.590Z,12.47
2018-07-23T09:00:05.621Z,13.22
2018-07-23T09:02:33.365Z,12.50
2018-07-23T09:05:01.261Z,12.37
2018-07-23T09:07:29.080Z,12.58
2018-07-23T09:09:56.844Z,12.40
2018-07-23T09:12:25.306Z,12.30
2018-07-23T09:14:54.451Z,11.10
2018-07-23T09:17:23.100Z,12.15
2018-07-23T09:19:50.721Z,11.33
2018-07-23T09:22:18.424Z,11.28
2018-07-23T09:24:46.105Z,12.80
2018-07-23T09:27:13.861Z,12.90
2018-07-23T09:29:41.578Z,11.43
2018-07-23T09:32:09.290Z,12.55
2018-07-23T09:34:37.034Z,12.47
2018-07-23T09:37:04.796Z,11.08
2018-07-23T09:39:32.722Z,12.78
2018-07-23T09:42:00.415Z,14.18
2018-07-23T09:44:28.143Z,10.88
2018-07-23T09:46:55.856Z,10.75
2018-07-23T09:49:23.575Z,10.93
2018-07-23T09:51:51.289Z,12.03
2018-07-23T09:54:20.040Z,14.00
2018-07-23T09:56:47.841Z,12.78
2018-07-23T09:59:15.647Z,15.90
2018-07-23T10:01:43.557Z,14.07
2018-07-23T10:04:11.487Z,13.65
2018-07-23T10:06:39.922Z,14.83
2018-07-23T10:09:09.837Z,11.97
2018-07-23T10:11:38.969Z,13.48
2018-07-23T10:14:07.121Z,12.82
2018-07-23T10:16:34.842Z,16.77
2018-07-23T10:19:03.281Z,13.78
2018-07-23T10:21:32.233Z,10.75
2018-07-23T10:23:59.998Z,9.18
2018-07-23T10:26:27.834Z,9.45
2018-07-23T10:28:55.666Z,8.88
2018-07-23T10:31:23.452Z,10.10
2018-07-23T10:33:51.150Z,11.43
2018-07-23T10:36:19.178Z,11.12
2018-07-23T10:38:46.946Z,10.65
2018-07-23T10:41:15.037Z,11.20
2018-07-23T10:43:43.028Z,9.85
2018-07-23T10:46:11.025Z,9.78
2018-07-23T10:48:38.735Z,8.08
2018-07-23T10:51:06.312Z,7.65
2018-07-23T10:53:34.013Z,7.65
2018-07-23T10:56:01.727Z,8.60
2018-07-23T10:58:29.431Z,7.85
2018-07-23T11:00:58.530Z,8.10
2018-07-23T11:03:26.486Z,8.50
2018-07-23T11:05:54.181Z,7.17
2018-07-23T11:08:21.973Z,6.22
2018-07-23T11:10:49.719Z,6.50
2018-07-23T11:13:17.437Z,7.28
2018-07-23T11:15:45.147Z,6.22
2018-07-23T11:18:12.829Z,5.78
2018-07-23T11:20:40.574Z,5.50
2018-07-23T11:23:08.354Z,5.33
2018-07-23T11:25:40.043Z,5.58
2018-07-23T11:28:03.910Z,5.55
2018-07-23T11:30:31.625Z,5.30
2018-07-23T11:32:59.366Z,4.85
2018-07-23T11:35:27.140Z,5.95
2018-07-23T11:37:54.911Z,5.75
2018-07-23T11:40:23.307Z,5.55
2018-07-23T11:42:51.155Z,6.10
2018-07-23T11:45:19.018Z,5.80
2018-07-23T11:47:46.788Z,6.85
2018-07-23T11:50:15.424Z,5.97
2018-07-23T11:52:43.295Z,4.80
2018-07-23T11:55:12.130Z,5.10
2018-07-23T11:57:39.922Z,6.37
2018-07-23T12:00:07.672Z,5.00
2018-07-23T12:02:35.424Z,5.35
2018-07-23T12:05:03.282Z,7.42
2018-07-23T12:07:30.998Z,7.35
2018-07-23T12:09:58.753Z,6.83
2018-07-23T12:12:26.512Z,6.80
2018-07-23T12:14:54.322Z,5.42
2018-07-23T12:17:22.140Z,4.90
2018-07-23T12:19:49.885Z,6.50
2018-07-23T12:22:17.591Z,4.75
2018-07-23T12:24:45.324Z,6.42
2018-07-23T12:27:13.026Z,6.25
2018-07-23T12:29:40.764Z,5.90
2018-07-23T12:32:08.485Z,5.67
2018-07-23T12:34:36.259Z,5.53
2018-07-23T12:37:03.967Z,6.87
2018-07-23T12:39:31.723Z,6.62
2018-07-23T12:41:59.427Z,4.62
2018-07-23T12:44:27.167Z,5.08
2018-07-23T12:46:54.889Z,4.12
2018-07-23T12:49:22.626Z,5.00
2018-07-23T12:51:50.339Z,6.42
2018-07-23T12:54:18.115Z,3.98
2018-07-23T12:56:45.945Z,3.90
2018-07-23T12:59:13.653Z,5.10
2018-07-23T13:01:41.370Z,4.33
2018-07-23T13:04:09.090Z,4.10
2018-07-23T13:06:36.823Z,4.62
2018-07-23T13:09:08.581Z,4.03
2018-07-23T13:11:36.396Z,4.50
2018-07-23T13:14:04.117Z,4.95
2018-07-23T13:16:32.458Z,3.67
2018-07-23T13:19:00.229Z,4.30
2018-07-23T13:21:27.994Z,5.53
2018-07-23T13:23:55.754Z,4.58
2018-07-23T13:26:23.600Z,3.67
2018-07-23T13:28:51.915Z,4.83
2018-07-23T13:31:19.641Z,3.65
2018-07-23T13:33:47.401Z,3.40
2018-07-23T13:36:15.163Z,2.65
2018-07-23T13:38:42.902Z,2.90
2018-07-23T13:41:10.683Z,3.22
2018-07-23T13:43:38.426Z,2.22
2018-07-23T13:46:06.165Z,2.62
2018-07-23T13:48:33.850Z,2.85
2018-07-23T13:51:01.538Z,2.70
2018-07-23T13:53:29.311Z,3.00
2018-07-23T13:55:57.045Z,3.17
2018-07-23T13:58:24.774Z,3.70
2018-07-23T14:00:52.819Z,2.62
2018-07-23T14:03:20.501Z,3.42
2018-07-23T14:05:48.268Z,2.45
2018-07-23T14:08:16.018Z,3.67
2018-07-23T14:10:43.749Z,2.60
2018-07-23T14:13:11.460Z,2.58
2018-07-23T14:15:39.376Z,2.50
2018-07-23T14:18:07.070Z,3.05
2018-07-23T14:20:35.399Z,3.02
2018-07-23T14:23:03.156Z,2.83
2018-07-23T14:25:30.830Z,3.00
2018-07-23T14:27:58.536Z,2.85
2018-07-23T14:30:26.371Z,3.15
2018-07-23T14:32:54.090Z,2.45
2018-07-23T14:35:21.845Z,2.92
2018-07-23T14:37:49.539Z,3.05
2018-07-23T14:40:17.238Z,3.02
2018-07-23T14:42:44.931Z,4.62
2018-07-23T14:45:12.616Z,3.70
2018-07-23T14:47:40.401Z,15.35
2018-07-23T14:50:08.127Z,3.83
2018-07-23T14:52:35.832Z,4.17
2018-07-23T14:55:03.586Z,3.08
2018-07-23T14:57:31.290Z,3.15
2018-07-23T14:59:59.050Z,3.33
2018-07-23T15:02:26.795Z,3.10
2018-07-23T15:04:54.506Z,4.08
2018-07-23T15:07:22.263Z,3.30
2018-07-23T15:09:50.058Z,5.47
2018-07-23T15:12:17.857Z,3.67
2018-07-23T15:14:45.702Z,3.45
2018-07-23T15:17:13.539Z,4.20
2018-07-23T15:19:41.265Z,3.77
2018-07-23T15:22:09.008Z,3.50
2018-07-23T15:24:36.682Z,3.33
2018-07-23T15:27:04.331Z,3.50
2018-07-23T15:29:33.041Z,2.98
2018-07-23T15:32:00.770Z,3.47
2018-07-23T15:34:28.449Z,3.80
2018-07-23T15:36:56.151Z,3.60
2018-07-23T15:39:23.935Z,4.60
2018-07-23T15:41:51.689Z,3.58
2018-07-23T15:44:19.929Z,3.52
2018-07-23T15:46:47.663Z,3.27
2018-07-23T15:49:15.421Z,4.47
2018-07-23T15:51:43.230Z,4.03
2018-07-23T15:54:11.434Z,3.60
2018-07-23T15:56:39.382Z,3.42
2018-07-23T15:59:07.671Z,3.00
2018-07-23T16:01:35.473Z,4.17
2018-07-23T16:04:03.941Z,3.50
2018-07-23T16:06:31.999Z,3.80
2018-07-23T16:08:59.706Z,3.35
2018-07-23T16:11:27.456Z,3.17
2018-07-23T16:13:55.216Z,3.37
2018-07-23T16:16:22.979Z,3.30
2018-07-23T16:18:50.702Z,3.87
2018-07-23T16:21:18.524Z,3.33
2018-07-23T16:23:46.218Z,2.90
2018-07-23T16:26:13.957Z,3.77
2018-07-23T16:28:41.594Z,3.98
2018-07-23T16:31:09.297Z,3.27
2018-07-23T16:33:37.017Z,3.75
2018-07-23T16:36:04.741Z,4.33
2018-07-23T16:38:32.446Z,3.00
2018-07-23T16:41:00.149Z,4.10
2018-07-23T16:43:27.956Z,5.05
2018-07-23T16:45:55.682Z,3.12
2018-07-23T16:48:23.374Z,4.60
2018-07-23T16:50:51.243Z,3.65
2018-07-23T16:53:19.896Z,3.37
2018-07-23T16:55:47.626Z,3.75
2018-07-23T16:58:15.474Z,3.70
2018-07-23T17:00:43.130Z,3.40
2018-07-23T17:03:10.875Z,3.42
2018-07-23T17:05:38.579Z,4.67
2018-07-23T17:08:06.243Z,3.10
2018-07-23T17:10:33.972Z,3.52
2018-07-23T17:13:01.830Z,4.62
2018-07-23T17:15:29.571Z,3.17
2018-07-23T17:17:57.344Z,3.20
2018-07-23T17:20:25.135Z,3.00
2018-07-23T17:22:52.964Z,3.22
2018-07-23T17:25:21.412Z,3.20
2018-07-23T17:27:49.662Z,3.80
2018-07-23T17:30:18.729Z,3.15
2018-07-23T17:32:46.499Z,3.62
2018-07-23T17:35:14.294Z,3.10
2018-07-23T17:37:42.093Z,3.45
2018-07-23T17:40:09.857Z,3.75
2018-07-23T17:42:37.907Z,3.47
2018-07-23T17:45:05.967Z,3.40
2018-07-23T17:47:33.745Z,3.72
2018-07-23T17:50:01.417Z,7.58
2018-07-23T17:52:29.165Z,3.30
2018-07-23T17:54:56.864Z,3.17
2018-07-23T17:57:24.568Z,3.50
2018-07-23T17:59:52.259Z,3.30
2018-07-23T18:02:20.154Z,4.62
2018-07-23T18:04:47.854Z,5.78
2018-07-23T18:07:15.583Z,3.98
2018-07-23T18:09:43.313Z,8.18
2018-07-23T18:12:11.042Z,3.50
2018-07-23T18:14:38.714Z,2.83
2018-07-23T18:17:06.550Z,3.52
2018-07-23T18:19:34.256Z,2.87
2018-07-23T18:22:01.981Z,4.35
2018-07-23T18:24:29.662Z,3.08
2018-07-23T18:26:57.363Z,2.70
2018-07-23T18:29:25.037Z,2.90
2018-07-23T18:31:52.775Z,7.22
2018-07-23T18:34:20.467Z,3.20
2018-07-23T18:36:48.167Z,2.80
2018-07-23T18:39:16.560Z,3.58
2018-07-23T18:41:44.258Z,4.58
2018-07-23T18:44:11.956Z,3.60
2018-07-23T18:46:39.666Z,3.98
2018-07-23T18:49:31.757Z,3.47
2018-07-23T18:51:59.521Z,3.22
2018-07-23T18:54:28.498Z,3.92
2018-07-23T18:56:57.393Z,3.30
2018-07-23T18:59:25.132Z,3.10
2018-07-23T19:01:53.743Z,4.10
2018-07-23T19:04:21.460Z,3.70
2018-07-23T19:06:49.516Z,3.47
2018-07-23T19:09:18.295Z,3.37
2018-07-23T19:11:47.177Z,4.15
2018-07-23T19:14:15.356Z,3.33
2018-07-23T19:16:43.543Z,3.50
2018-07-23T19:19:11.364Z,3.70
2018-07-23T19:21:39.231Z,3.52
2018-07-23T19:24:07.154Z,3.33
2018-07-23T19:26:35.229Z,3.87
2018-07-23T19:29:03.363Z,3.98
2018-07-23T19:31:31.144Z,3.72
2018-07-23T19:33:59.989Z,4.33
2018-07-23T19:36:27.897Z,3.55
2018-07-23T19:38:55.936Z,3.67
2018-07-23T19:41:24.076Z,3.72
2018-07-23T19:43:52.277Z,3.35
2018-07-23T19:46:20.041Z,4.17
2018-07-23T19:48:47.754Z,3.85
2018-07-23T19:51:15.594Z,3.25
2018-07-23T19:53:43.278Z,4.37
2018-07-23T19:56:11.312Z,3.47
2018-07-23T19:58:39.409Z,3.52
2018-07-23T20:01:07.115Z,3.62
2018-07-23T20:03:34.834Z,3.52
2018-07-23T20:06:02.576Z,4.87
2018-07-23T20:08:30.300Z,3.27
2018-07-23T20:10:58.005Z,4.20
2018-07-23T20:13:25.928Z,4.58
2018-07-23T20:15:54.820Z,3.95
2018-07-23T20:18:22.542Z,3.83
2018-07-23T20:20:50.304Z,3.60
2018-07-23T20:23:18.005Z,3.55
2018-07-23T20:25:45.757Z,3.33
2018-07-23T20:28:14.436Z,4.10
2018-07-23T20:30:42.188Z,3.83
2018-07-23T20:33:09.924Z,3.45
2018-07-23T20:35:37.920Z,5.05
2018-07-23T20:38:05.883Z,5.90
2018-07-23T20:40:33.611Z,5.10
2018-07-23T20:43:01.273Z,4.20
2018-07-23T20:45:28.991Z,3.90
2018-07-23T20:47:57.084Z,5.90
2018-07-23T20:50:24.847Z,4.67
2018-07-23T20:52:52.624Z,6.85
2018-07-23T20:55:20.326Z,8.58
2018-07-23T20:57:48.138Z,4.37
2018-07-23T21:00:16.218Z,5.92
2018-07-23T21:02:43.861Z,4.30
2018-07-23T21:05:11.577Z,5.50
2018-07-23T21:07:39.314Z,4.20
2018-07-23T21:10:07.142Z,4.35
2018-07-23T21:12:35.031Z,4.40
2018-07-23T21:15:02.804Z,4.80
2018-07-23T21:17:30.504Z,4.20
2018-07-23T21:19:58.231Z,4.20
2018-07-23T21:22:25.996Z,4.97
2018-07-23T21:24:53.742Z,5.00
2018-07-23T21:27:21.471Z,6.45
2018-07-23T21:29:49.213Z,4.45
2018-07-23T21:32:16.985Z,6.25
2018-07-23T21:34:44.971Z,5.08
2018-07-23T21:37:12.705Z,4.30
2018-07-23T21:39:40.432Z,4.53
2018-07-23T21:42:08.426Z,3.45
2018-07-23T21:44:36.126Z,4.72
2018-07-23T21:47:03.825Z,4.35
2018-07-23T21:49:31.502Z,5.47
2018-07-23T21:51:59.318Z,4.35
2018-07-23T21:54:28.357Z,5.10
2018-07-23T21:56:56.113Z,4.10
2018-07-23T21:59:23.813Z,5.55
2018-07-23T22:01:51.585Z,3.47
2018-07-23T22:04:19.301Z,3.45
2018-07-23T22:06:47.034Z,5.87
2018-07-23T22:09:14.786Z,4.60
2018-07-23T22:11:42.482Z,3.83
2018-07-23T22:14:10.201Z,5.67
2018-07-23T22:16:38.350Z,3.92
2018-07-23T22:19:06.057Z,3.63
2018-07-23T22:21:33.806Z,3.03
2018-07-23T22:24:01.512Z,5.00
2018-07-23T22:26:29.210Z,4.20
2018-07-23T22:28:56.906Z,3.45
2018-07-23T22:31:24.638Z,5.33
2018-07-23T22:33:53.839Z,6.10
2018-07-23T22:36:21.543Z,3.77
2018-07-23T22:38:49.260Z,3.60
2018-07-23T22:41:16.942Z,6.43
2018-07-23T22:43:44.618Z,5.07
2018-07-23T22:46:12.297Z,3.53
2018-07-23T22:48:40.061Z,5.63
2018-07-23T22:51:07.777Z,7.03
2018-07-23T22:53:35.534Z,3.93
2018-07-23T22:56:03.237Z,4.87
2018-07-23T22:58:31.249Z,3.87
2018-07-23T23:00:59.024Z,6.47
2018-07-23T23:03:26.737Z,5.30
2018-07-23T23:05:54.510Z,3.60
2018-07-23T23:08:22.209Z,5.87
2018-07-23T23:10:49.921Z,4.30
2018-07-23T23:13:17.669Z,7.20
2018-07-23T23:15:45.909Z,7.27
2018-07-23T23:18:13.632Z,4.97
2018-07-23T23:20:41.341Z,5.60
2018-07-23T23:23:09.079Z,4.17
2018-07-23T23:25:36.844Z,4.60
2018-07-23T23:28:04.622Z,6.20
2018-07-23T23:30:32.325Z,4.03
2018-07-23T23:33:00.011Z,5.63
2018-07-23T23:35:27.725Z,5.43
2018-07-23T23:37:55.487Z,7.90
2018-07-23T23:40:23.191Z,3.93
2018-07-23T23:42:50.882Z,4.13
2018-07-23T23:45:18.611Z,4.10
2018-07-23T23:47:47.172Z,4.20
2018-07-23T23:50:15.048Z,4.00
2018-07-23T23:52:42.898Z,7.27
2018-07-23T23:55:10.664Z,3.43
2018-07-23T23:57:39.061Z,4.50
